ADDS METAR Data INFO
IDs: Format: Raw Decoded Include TAF

Data at: 0026 UTC 24 May 2017

KWVI 232353Z AUTO 25007KT 10SM 14/12 A2999 RMK AO2 SLP154 T01440122 10189 20144 $
KWVI 232253Z AUTO 21009KT 10SM OVC010 14/12 A3000 RMK AO2 SLP160 T01440122
KWVI 232227Z AUTO 24010KT 10SM BKN010 15/12 A3001 RMK AO2 T01500122
KWVI 232153Z AUTO 23010KT 10SM BKN009 16/13 A3001 RMK AO2 SLP162 T01560128
KWVI 232150Z AUTO 23009KT 10SM BKN009 16/13 A3001 RMK AO2
KWVI 232142Z AUTO 23009KT 10SM BKN010 15/12 A3001 RMK AO2 T01500122
KWVI 232115Z AUTO 20009KT 10SM SCT010 16/13 A3000 RMK AO2 T01610128
KWVI 232102Z AUTO 23007KT 210V280 10SM BKN010 17/13 A3000 RMK AO2 T01670128
KWVI 232053Z AUTO 22008KT 10SM BKN009 16/13 A3001 RMK AO2 SLP160 T01610128 53011
KWVI 232042Z AUTO 22009KT 10SM BKN009 16/13 A3001 RMK AO2 T01560128
KWVI 232021Z AUTO 23010KT 10SM FEW008 17/13 A3000 RMK AO2 T01670133 $
KWVI 231953Z AUTO 24010KT 10SM CLR 17/13 A2999 RMK AO2 SLP156 T01670133 $
KWVI 231853Z AUTO 19009KT 10SM CLR 19/14 A2996 RMK AO2 SLP146 T01890144 $
KWVI 231753Z AUTO VRB04KT 10SM SCT010 16/14 A2997 RMK AO2 SLP150 T01610139 58006 $
KWVI 231745Z AUTO VRB03KT 10SM BKN010 15/13 A2998 RMK AO2 T01500133 $
KWVI 231709Z AUTO 00000KT 10SM OVC007 14/13 A2998 RMK AO2 T01440133 $
KWVI 231653Z AUTO 00000KT 10SM OVC005 13/13 A2999 RMK AO2 CIG 004V008 SLP154 T01330128 $
KWVI 231553Z AUTO 00000KT 6SM BR OVC003 12/12 A3000 RMK AO2 SLP158 T01170117 $
KWVI 231453Z AUTO 00000KT 8SM OVC003 12/12 A2999 RMK AO2 SLP155 T01170117 $
KWVI 231353Z AUTO 00000KT 3SM BR OVC002 A2997 RMK AO2 SLPNO $
KWVI 231339Z AUTO 07003KT 4SM HZ OVC002 A2997 RMK AO2 $
KWVI 231253Z AUTO 00000KT 6SM BR OVC003 11/11 A2997 RMK AO2 SLP148 T01110111 $
KWVI 231230Z AUTO 00000KT 5SM BR OVC002 11/11 A2997 RMK AO2 T01110111 $
KWVI 231153Z AUTO 14004KT 2 1/2SM BR OVC003 11/11 A2997 RMK AO2 SLP149 T01110111 10122 20111 56004 $
KWVI 231144Z AUTO 00000KT 2SM BR OVC003 11/11 A2997 RMK AO2 T01110111 $
KWVI 231120Z AUTO 00000KT 1 1/4SM BR OVC002 11/11 A2998 RMK AO2 T01110111
KWVI 231113Z AUTO 19003KT 1 1/2SM BR OVC002 11/11 A2998 RMK AO2 T01110111
KWVI 231106Z AUTO 18004KT 2SM BR OVC002 11/11 A2998 RMK AO2 T01110111
KWVI 231053Z AUTO 21004KT 3SM BR OVC002 11/11 A2998 RMK AO2 SLP150 T01110111
KWVI 231037Z AUTO 20004KT 3SM BR OVC002 11/11 A2997 RMK AO2 T01110111
KWVI 231026Z AUTO 19004KT 2 1/2SM BR OVC002 11/11 A2998 RMK AO2 T01110111
KWVI 231000Z AUTO 19005KT 3SM BR OVC002 11/11 A2998 RMK AO2 T01110111
KWVI 230953Z AUTO 21004KT 2 1/2SM BR OVC002 11/11 A2998 RMK AO2 SLP151 T01110111
KWVI 230932Z AUTO 19004KT 2SM BR OVC002 11/11 A2998 RMK AO2 T01110111
KWVI 230853Z AUTO 23003KT 4SM BR OVC003 11/11 A2998 RMK AO2 SLP153 T01110111 58002
KWVI 230753Z AUTO 00000KT 8SM OVC004 12/12 A2999 RMK AO2 SLP156 T01170117 401890100
KWVI 230653Z AUTO 00000KT 9SM OVC004 12/12 A2999 RMK AO2 SLP156 T01170117
KWVI 230627Z AUTO 23003KT 9SM OVC004 12/12 A2999 RMK AO2 T01170117
KWVI 230553Z AUTO 00000KT 10SM OVC005 12/12 A2999 RMK AO2 SLP155 T01170117 10161 20117 50002
KWVI 230529Z AUTO 00000KT 10SM OVC005 12/12 A2999 RMK AO2 T01220122
KWVI 230453Z AUTO 00000KT 9SM OVC004 12/12 A2999 RMK AO2 SLP155 T01220122
KWVI 230353Z AUTO 24003KT 10SM OVC004 12/12 A2999 RMK AO2 SLP155 T01170117
KWVI 230311Z AUTO 27004KT 10SM OVC004 12/12 A2999 RMK AO2 T01170117
KWVI 230253Z AUTO 24004KT 10SM OVC005 12/12 A2999 RMK AO2 SLPNO T01170117 53001
KWVI 230234Z AUTO 28004KT 10SM OVC005 12/12 A2999 RMK AO2 T01220122
KWVI 230153Z AUTO 23006KT 10SM BKN007 12/12 A2998 RMK AO2 SLPNO T01220122
KWVI 230141Z AUTO 22006KT 10SM BKN007 13/12 A2997 RMK AO2 T01280122
KWVI 230120Z AUTO 21007KT 10SM FEW007 13/12 A2997 RMK AO2 T01330122
KWVI 230053Z AUTO 22006KT 10SM CLR 14/12 A2998 RMK AO2 SLP151 T01440122
No TAF found for KWVI

KSNS 232353Z 28009KT 10SM OVC011 16/11 A2998 RMK AO2 SLP162 T01560111 10222 20156 58003
KSNS 232253Z 29011G19KT 10SM OVC012 16/11 A2999 RMK AO2 SLP165 T01560111
KSNS 232153Z 28014KT 10SM OVC012 16/11 A3000 RMK AO2 SLP167 T01560111
KSNS 232053Z 28017KT 10SM BKN013 17/11 A2999 RMK AO2 SLP165 T01670111 50015
KSNS 232049Z 30014G21KT 10SM BKN013 17/11 A2999 RMK AO2
KSNS 231953Z 29014KT 10SM CLR 19/12 A2997 RMK AO2 SLP157 T01890117 $
KSNS 231853Z 27009KT 9SM CLR 21/13 A2995 RMK AO2 SLP149 T02110128 $
KSNS 231753Z 28004KT 8SM CLR 19/12 A2996 RMK AO2 SLP155 T01890122 10189 20122 58007 $
KSNS 231700Z 00000KT 6SM HZ SCT010 16/12 A2997 RMK AO2 T01560117 $
KSNS 231653Z 00000KT 6SM HZ BKN010 16/12 A2998 RMK AO2 SLP160 T01560117 $
KSNS 231553Z 00000KT 6SM BR OVC006 13/11 A2999 RMK AO2 SLP165 T01330111 $
KSNS 231453Z 15005KT 5SM BR OVC005 13/11 A2998 RMK AO2 SLP162 T01280111 53005 $
KSNS 231446Z 13005KT 5SM BR OVC005 13/11 A2998 RMK AO2 T01280111 $
KSNS 231432Z 12005KT 5SM BR OVC004 13/11 A2998 RMK AO2 T01280111 $
KSNS 231419Z 13005KT 5SM BR OVC005 12/11 A2997 RMK AO2 T01220111 $
KSNS 231353Z 08004KT 6SM BR OVC004 12/11 A2997 RMK AO2 SLP157 T01220111 $
KSNS 231253Z 00000KT 7SM OVC004 12/11 A2996 RMK AO2 SLP156 T01220111 $
KSNS 231153Z AUTO 03003KT 7SM OVC004 12/11 A2997 RMK AO2 SLP157 T01220111 10133 20117 58004 $
KSNS 231053Z AUTO 35003KT 7SM OVC004 12/11 A2998 RMK AO2 SLP160 T01220111 $
KSNS 230953Z AUTO 28005KT 7SM OVC003 12/11 A2998 RMK AO2 SLP159 T01220111 $
KSNS 230853Z AUTO 32005KT 6SM BR OVC004 13/11 A2998 RMK AO2 SLP161 T01330111 58003
KSNS 230816Z AUTO 27005KT 7SM OVC004 13/11 A2999 RMK AO2 T01330111
KSNS 230753Z AUTO 33005KT 7SM OVC005 13/12 A2999 RMK AO2 SLP165 T01330117 402110106
KSNS 230653Z AUTO 32005KT 9SM OVC006 13/11 A2999 RMK AO2 SLP163 T01330111
KSNS 230553Z AUTO 26006KT 9SM OVC007 13/11 A2999 RMK AO2 SLP163 T01330111 10172 20133 51004
KSNS 230453Z AUTO 28005KT 9SM OVC007 13/11 A2998 RMK AO2 SLP162 T01330111
KSNS 230353Z AUTO 31008KT 10SM OVC007 14/11 A2998 RMK AO2 SLP162 T01390111
KSNS 230253Z AUTO 30010KT 10SM OVC009 14/11 A2998 RMK AO2 SLP159 T01390111 53003
KSNS 230201Z 29011KT 10SM BKN009 14/11 A2997 RMK AO2 T01440111
KSNS 230153Z 28010KT 10SM SCT011 15/11 A2997 RMK AO2 SLP156 T01500111
KSNS 230141Z 28011KT 10SM BKN011 15/11 A2996 RMK AO2 T01500111
KSNS 230053Z 30012KT 10SM CLR 16/11 A2996 RMK AO2 SLP154 T01610111

KSNS 232339Z 2400/2424 29014KT P6SM OVC014
  FM240300 29010KT P6SM OVC008
  FM240800 VRB04KT P6SM OVC010
  FM241800 31012KT P6SM SCT012


KMRY 240019Z 27005KT 10SM SCT011 15/11 A2998 RMK AO2 T01500111
KMRY 232354Z 25007KT 10SM BKN011 16/11 A2999 RMK AO2 SLP166 T01560111 10178 20144 58006
KMRY 232254Z 25009KT 10SM OVC010 15/11 A3000 RMK AO2 SLP171 T01500111
KMRY 232154Z 23011G19KT 10SM OVC010 16/11 A3000 RMK AO2 SLP172 T01560111
KMRY 232054Z 21013G18KT 10SM OVC009 15/11 A3001 RMK AO2 SLP173 T01500111 53012
KMRY 232040Z 24011KT 10SM OVC009 16/11 A3000 RMK AO2 T01560111
KMRY 232020Z 21010KT 10SM BKN010 15/11 A3000 RMK AO2 T01500111
KMRY 231954Z 22012G19KT 10SM FEW010 16/12 A2999 RMK AO2 WSHFT 1916 SLP168 T01610117
KMRY 231936Z 23011KT 10SM CLR 17/12 A2999 RMK AO2 WSHFT 1916 T01720117
KMRY 231854Z 32007KT 10SM CLR 16/11 A2998 RMK AO2 SLP164 T01560111
KMRY 231754Z VRB04KT 10SM FEW009 16/12 A2997 RMK AO2 SLP162 T01560117 10156 20111 58005
KMRY 231654Z VRB03KT 10SM OVC007 14/11 A2999 RMK AO2 SLP166 T01390111
KMRY 231606Z 00000KT 10SM OVC005 13/11 A3000 RMK AO2 T01280111
KMRY 231554Z 00000KT 10SM OVC004 12/11 A3000 RMK AO2 SLP170 T01220111
KMRY 231454Z 00000KT 8SM OVC003 12/11 A2999 RMK AO2 SLP167 T01170111 53006
KMRY 231354Z 05004KT 5SM BR OVC002 11/11 A2997 RMK AO2 SLP161 T01110111
KMRY 231254Z 01004KT 9SM OVC004 11/11 A2996 RMK AO2 SLP158 T01110106
KMRY 231154Z AUTO 04004KT 6SM BR OVC002 11/11 A2997 RMK AO2 SLP161 T01110106 10128 20111 56006
KMRY 231054Z AUTO 26003KT 5SM BR OVC002 11/11 A2998 RMK AO2 SLP163 T01110106
KMRY 230954Z AUTO 24005KT 5SM BR OVC002 11/11 A2998 RMK AO2 SLP163 T01110106
KMRY 230854Z AUTO 20004KT 7SM OVC003 12/11 A2999 RMK AO2 SLP167 T01170111 58001
KMRY 230803Z AUTO 19003KT 9SM OVC004 12/11 A2999 RMK AO2 T01170111
KMRY 230754Z AUTO 21004KT 10SM OVC005 12/11 A3000 RMK AO2 SLP169 T01170111 401780100
KMRY 230738Z AUTO 20005KT 10SM OVC005 12/11 A3000 RMK AO2 T01220111
KMRY 230654Z AUTO 29003KT 9SM OVC004 12/11 A3000 RMK AO2 SLP169 T01220111
KMRY 230632Z AUTO 29003KT 9SM OVC004 12/11 A2999 RMK AO2 T01220111
KMRY 230554Z AUTO 31003KT 10SM OVC005 13/11 A2999 RMK AO2 SLP168 T01280111 10156 20122 52002
KMRY 230454Z AUTO 29003KT 10SM OVC006 13/11 A2999 RMK AO2 SLP167 T01280111
KMRY 230354Z 00000KT 10SM OVC007 13/11 A2999 RMK AO2 SLP168 T01280111
KMRY 230254Z 24005KT 10SM OVC006 13/11 A2999 RMK AO2 SLP167 T01280111 53004
KMRY 230154Z 25008KT 10SM BKN007 13/11 A2998 RMK AO2 SLP165 T01330106
KMRY 230149Z 24009KT 10SM BKN007 13/11 A2998 RMK AO2
KMRY 230127Z 23009KT 10SM FEW009 14/11 A2998 RMK AO2 T01390106
KMRY 230054Z 26008KT 10SM CLR 15/11 A2998 RMK AO2 SLP162 T01500111

KMRY 232339Z 2400/2424 26012KT P6SM OVC010
  FM240200 27006KT P6SM OVC007
  FM240700 24010KT P6SM OVC012
  FM241900 26012KT P6SM SCT014


KSJC 232353Z 30012KT 10SM FEW060 FEW100 24/14 A2992 RMK AO2 SLP129 T02390139 10256 20211 58003
KSJC 232253Z 29012KT 10SM FEW070 FEW100 25/14 A2992 RMK AO2 SLP131 T02500139
KSJC 232153Z 30012KT 10SM FEW085 26/14 A2992 RMK AO2 SLP131 T02560144
KSJC 232053Z 29009KT 10SM FEW090 25/15 A2992 RMK AO2 SLP132 T02500150 56012
KSJC 231953Z VRB04KT 10SM CLR 24/15 A2993 RMK AO2 SLP134 T02390150
KSJC 231853Z 32006KT 9SM CLR 22/15 A2995 RMK AO2 SLP140 T02220150
KSJC 231753Z 32006KT 8SM CLR 21/14 A2996 RMK AO2 SLP144 T02110144 10217 20144 58001
KSJC 231653Z VRB04KT 10SM CLR 20/14 A2996 RMK AO2 SLP146 T02000139
KSJC 231553Z 00000KT 10SM FEW004 18/13 A2997 RMK AO2 SLP146 T01830128
KSJC 231453Z 00000KT 10SM FEW004 FEW012 16/12 A2996 RMK AO2 SLP145 T01610122 51004
KSJC 231353Z 14006KT 10SM FEW004 FEW015 15/12 A2996 RMK AO2 SLP145 T01500117
KSJC 231253Z 15003KT 10SM FEW004 BKN011 15/12 A2996 RMK AO2 SLP143 T01500117
KSJC 231153Z AUTO 32003KT 10SM OVC011 16/13 A2995 RMK AO2 SLP141 T01560133 10172 20144 53001
KSJC 231128Z AUTO 35003KT 10SM BKN012 16/14 A2995 RMK AO2 T01560139
KSJC 231053Z AUTO 31005KT 10SM CLR 16/14 A2995 RMK AO2 SLP141 T01560139
KSJC 230953Z AUTO 30004KT 10SM CLR 15/13 A2994 RMK AO2 SLP139 T01500133
KSJC 230853Z AUTO 31003KT 10SM CLR 16/13 A2995 RMK AO2 SLP140 T01560133 58005
KSJC 230753Z AUTO 31003KT 10SM CLR 16/13 A2996 RMK AO2 SLP144 T01610133 402830133
KSJC 230653Z 32005KT 10SM FEW025 FEW080 SCT180 16/13 A2996 RMK AO2 SLP146 LAST T01610133
KSJC 230553Z 28005KT 10SM FEW080 BKN180 17/13 A2996 RMK AO2 SLP145 T01670133 10272 20167 51014
KSJC 230453Z 29004KT 10SM SCT080 BKN160 18/13 A2995 RMK AO2 SLP143 T01830133
KSJC 230353Z 30008KT 10SM SCT080 BKN160 BKN200 19/13 A2994 RMK AO2 SLP137 T01890133
KSJC 230253Z 29009KT 10SM FEW080 SCT180 22/13 A2992 RMK AO2 SLP131 T02170133 53004
KSJC 230153Z 30012KT 10SM FEW080 SCT180 24/13 A2990 RMK AO2 SLP125 T02440133
KSJC 230053Z 30010KT 10SM FEW100 26/12 A2990 RMK AO2 SLP125 T02610122

KSJC 232339Z 2400/2424 31014KT P6SM SKC
  FM240300 30008KT P6SM FEW007
  FM240800 VRB04KT P6SM BKN010
  FM241000 15009KT P6SM OVC010
  FM241800 21007KT P6SM FEW012 SCT250


KSFO 232356Z 30020KT 10SM FEW008 FEW200 17/10 A2993 RMK AO2 SLP134 T01720100 10206 20167 56006
KSFO 232256Z 30020KT 10SM FEW008 FEW200 18/11 A2993 RMK AO2 PK WND 29027/2158 SLP136 T01830106
KSFO 232156Z 29022KT 10SM FEW008 FEW200 18/11 A2994 RMK AO2 PK WND 29027/2154 SLP137 T01830106
KSFO 232056Z 30019KT 10SM FEW008 FEW200 18/11 A2995 RMK AO2 SLP140 T01830106 56008
KSFO 231956Z 30014KT 10SM FEW009 FEW200 19/11 A2995 RMK AO2 SLP141 T01940111
KSFO 231856Z 32010KT 10SM FEW009 18/11 A2996 RMK AO2 SLP145 T01780111
KSFO 231756Z 32011KT 10SM FEW009 17/11 A2997 RMK AO2 SLP149 T01670111 10167 20111 58001
KSFO 231705Z 32010KT 10SM SCT009 16/11 A2998 RMK AO2 T01560106
KSFO 231656Z COR 32009KT 10SM SCT009 15/11 A2998 RMK AO2 SLP152 T01500106
KSFO 231556Z 30008KT 9SM OVC009 14/11 A2998 RMK AO2 SLP152 T01390106
KSFO 231456Z 22003KT 10SM OVC008 13/11 A2997 RMK AO2 SLP150 T01330106 53007
KSFO 231356Z 28005KT 10SM FEW007 BKN011 12/10 A2997 RMK AO2 SLP147 T01220100
KSFO 231256Z 29007KT 10SM FEW007 12/10 A2996 RMK AO2 SLP144 T01170100
KSFO 231156Z 29009KT 10SM FEW008 12/10 A2995 RMK AO2 SLP142 T01170100 10128 20117 51001
KSFO 231056Z 29010KT 10SM FEW008 12/10 A2995 RMK AO2 SLP142 T01170100
KSFO 230956Z 30011KT 10SM FEW200 12/10 A2995 RMK AO2 SLP143 T01220100
KSFO 230856Z 29010KT 10SM FEW200 12/10 A2995 RMK AO2 SLP141 T01220100 58006
KSFO 230756Z 29007KT 10SM FEW009 12/11 A2996 RMK AO2 SLP145 T01220106 402110106
KSFO 230656Z 29008KT 10SM FEW007 13/11 A2997 RMK AO2 SLP147 T01280106
KSFO 230556Z 29010KT 10SM FEW007 13/11 A2997 RMK AO2 SLP147 T01280106 10189 20128 51013
KSFO 230456Z 30011KT 10SM FEW008 13/11 A2996 RMK AO2 SLP144 T01280106
KSFO 230356Z 29014KT 10SM FEW008 FEW200 13/11 A2994 RMK AO2 SLP139 BCFG T01330106
KSFO 230256Z 30018KT 10SM FEW008 FEW200 14/11 A2993 RMK AO2 PK WND 29026/0159 SLP134 T01390106 53003
KSFO 230156Z 29020KT 10SM FEW008 FEW200 16/11 A2992 RMK AO2 PK WND 29026/0126 SLP130 T01560106
KSFO 230056Z 29021KT 10SM FEW008 FEW200 17/11 A2992 RMK AO2 SLP130 T01720106

KSFO 232339Z 2400/2506 30016G25KT P6SM FEW008
  FM240400 29014KT P6SM SCT008
  FM241000 26010KT P6SM OVC008
  FM241400 26014KT P6SM OVC012
  FM242100 27017G25KT P6SM SCT012
  FM250400 27014KT P6SM OVC010


KHAF 240015Z AUTO 21005KT 7SM OVC008 13/10 A2999 RMK AO2
KHAF 232355Z AUTO 21005KT 7SM OVC008 13/11 A2999 RMK AO2
KHAF 232335Z AUTO 20007KT 7SM OVC008 13/11 A2999 RMK AO2
KHAF 232315Z AUTO 21007KT 7SM OVC008 13/11 A3000 RMK AO2
KHAF 232255Z AUTO 21007KT 8SM OVC008 13/11 A3000 RMK AO2
KHAF 232235Z AUTO 23008KT 7SM OVC008 13/11 A3000 RMK AO2
KHAF 232215Z AUTO 22009KT 7SM BKN008 13/11 A3000 RMK AO2
KHAF 232155Z AUTO 22008KT 6SM HZ OVC008 14/11 A3000 RMK AO2
KHAF 232135Z AUTO 22007KT 7SM OVC008 13/11 A3001 RMK AO2
KHAF 232115Z AUTO 22008KT 7SM OVC008 13/11 A3001 RMK AO2
KHAF 232055Z AUTO 22007KT 6SM BR OVC006 13/11 A3002 RMK AO2
KHAF 232035Z AUTO 22006KT 6SM BR OVC006 13/11 A3001 RMK AO2
KHAF 232015Z AUTO 24007KT 5SM BR OVC005 13/11 A3001 RMK AO2
KHAF 231955Z AUTO 25007KT 5SM BR BKN006 13/11 A3000 RMK AO2
KHAF 231935Z AUTO 28007KT 5SM BR FEW006 13/12 A3000 RMK AO2
KHAF 231915Z AUTO 28007KT 6SM BR SCT005 13/12 A2999 RMK AO2
KHAF 231855Z AUTO 30006KT 7SM OVC005 13/12 A2998 RMK AO2
KHAF 231835Z AUTO 26006KT 7SM OVC005 13/12 A2999 RMK AO2
KHAF 231815Z AUTO 25006KT 5SM BR OVC004 12/11 A2999 RMK AO2
KHAF 231755Z AUTO 20003KT 8SM OVC005 13/11 A2999 RMK AO2
KHAF 231735Z AUTO 16004KT 5SM BR OVC004 12/11 A3000 RMK AO2
KHAF 231715Z AUTO 17003KT 3SM BR OVC004 12/11 A3000 RMK AO2
KHAF 231655Z AUTO 00000KT 2SM BR OVC003 12/11 A3000 RMK AO2 VSBY 1 1/2V3
KHAF 231635Z AUTO 14003KT 1 3/4SM BR OVC003 12/10 A3000 RMK AO2
KHAF 231615Z AUTO 14004KT 2SM BR OVC003 11/10 A3000 RMK AO2
KHAF 231555Z AUTO 12005KT 2 1/2SM BR OVC003 11/10 A3000 RMK AO2
KHAF 231535Z AUTO 14005KT 1 1/4SM BR OVC003 11/10 A3000 RMK AO2
KHAF 231515Z AUTO 13004KT 3/4SM BR OVC003 10/10 A3000 RMK AO2
KHAF 231455Z AUTO 19003KT 1 1/4SM BR OVC003 10/10 A2999 RMK AO2
KHAF 231435Z AUTO 00000KT 5SM BR OVC003 10/10 A2999 RMK AO2
KHAF 231415Z AUTO 14004KT 3/4SM BR OVC003 10/10 A2998 RMK AO2
KHAF 231355Z AUTO 10004KT 1SM BR OVC003 10/10 A2998 RMK AO2
KHAF 231335Z AUTO 13004KT 1SM BR OVC003 10/10 A2998 RMK AO2
KHAF 231315Z AUTO 13004KT 1 1/4SM BR OVC003 10/10 A2997 RMK AO2
KHAF 231255Z AUTO 15003KT 3SM BR OVC003 10/10 A2997 RMK AO2
KHAF 231235Z AUTO 13005KT 1 1/2SM BR OVC003 10/10 A2997 RMK AO2
KHAF 231215Z AUTO 14005KT 1 3/4SM BR OVC003 10/10 A2997 RMK AO2
KHAF 231155Z AUTO 10006KT 2SM BR OVC003 10/10 A2997 RMK AO2
KHAF 231135Z AUTO 13006KT 2SM BR OVC003 10/10 A2998 RMK AO2
KHAF 231115Z AUTO 17006KT 3SM BR OVC003 10/10 A2998 RMK AO2
KHAF 231055Z AUTO 15007KT 2 1/2SM BR OVC003 10/10 A2998 RMK AO2
KHAF 231035Z AUTO 19005KT 3SM BR OVC003 10/10 A2998 RMK AO2
KHAF 231015Z AUTO 17008KT 1 3/4SM BR OVC003 11/10 A2998 RMK AO2
KHAF 230955Z AUTO 15007KT 1 3/4SM BR OVC003 11/10 A2998 RMK AO2
KHAF 230935Z AUTO 14007KT 1 3/4SM BR OVC003 11/10 A2998 RMK AO2
KHAF 230915Z AUTO 17008KT 1SM BR OVC003 11/10 A2998 RMK AO2
KHAF 230855Z AUTO 17006KT 1 1/4SM BR OVC003 11/10 A2998 RMK AO2
KHAF 230835Z AUTO 17007KT 3/4SM BR OVC003 11/11 A2998 RMK AO2
KHAF 230815Z AUTO 14006KT 1SM BR OVC003 11/11 A2999 RMK AO2
KHAF 230755Z AUTO 14005KT 1/2SM FG OVC002 11/11 A2999 RMK AO2
KHAF 230735Z AUTO 15006KT 3/4SM BR OVC002 11/11 A2999 RMK AO2
KHAF 230715Z AUTO 17005KT 1/2SM FG OVC002 11/11 A2999 RMK AO2
KHAF 230655Z AUTO 21004KT 1/2SM FG OVC002 11/11 A2999 RMK AO2
KHAF 230635Z AUTO 17003KT 1/2SM FG OVC002 12/11 A2999 RMK AO2
KHAF 230615Z AUTO 00000KT 3/4SM BR OVC003 11/10 A2999 RMK AO2
KHAF 230555Z AUTO 18004KT 3/4SM BR OVC002 12/11 A2999 RMK AO2
KHAF 230535Z AUTO 19003KT 1/2SM FG OVC002 11/11 A2999 RMK AO2
KHAF 230515Z AUTO 22004KT 3/4SM BR OVC003 12/10 A2999 RMK AO2
KHAF 230455Z AUTO 23003KT 1SM BR OVC003 12/11 A2999 RMK AO2
KHAF 230435Z AUTO 00000KT 3SM BR OVC003 12/11 A2998 RMK AO2
KHAF 230415Z AUTO 18003KT 3SM BR OVC003 12/11 A2999 RMK AO2
KHAF 230355Z AUTO 00000KT 5SM BR OVC003 12/11 A2999 RMK AO2
KHAF 230335Z AUTO 17003KT 5SM BR OVC004 12/11 A2999 RMK AO2
KHAF 230315Z AUTO 18004KT 5SM BR OVC004 12/11 A2999 RMK AO2
KHAF 230255Z AUTO 5SM BR OVC005 12/11 A2999 RMK AO2
KHAF 230235Z AUTO 22004KT 5SM BR OVC004 12/11 A2998 RMK AO2
KHAF 230215Z AUTO 21004KT 5SM BR OVC005 12/11 A2998 RMK AO2
KHAF 230155Z AUTO 23004KT 5SM BR OVC005 13/11 A2998 RMK AO2
KHAF 230135Z AUTO 23005KT 5SM BR OVC005 13/11 A2998 RMK AO2
KHAF 230115Z AUTO 23005KT 5SM BR OVC006 13/11 A2998 RMK AO2
KHAF 230055Z AUTO 23005KT 6SM BR OVC008 13/11 A2998 RMK AO2
KHAF 230035Z AUTO 26005KT 5SM BR OVC008 13/12 A2998 RMK AO2
No TAF found for KHAF


Page loaded:  00:26 UTC  |   05:26 PM Pacific  |   06:26 PM Mountain  |   07:26 PM Central  |   08:26 PM Eastern

 

ADVISORIES

FORECASTS

FORECASTS

OBSERVATIONS

USER TOOLS

ABOUT US